LFSG

Épinal-Mirecourt Airport

Airport
ICAO code
LFSG
IATA Code
EPL
Summary
ICAO Region
EUR
ICAO Territory
Location

, Lorraine

Serving
Epinal
Elevation
1084 ft
Coordinates
48° 19' 30" N , 6° 4' 12" E
Metar
Observation
LFSG 091930Z AUTO 01005KT 9999 OVC020 00/M01 Q1004
Station
Epinal-Mirecourt
Date/Time
2022-12-09 19:30:00
Wind direction
10°
Wind speed
05 kts
Lowest cloud amount
overcast
Temperature
0°C
Dew point
-1°C
Humidity
92%
QNH
1004 hPa
Weather condition
n/a

Runways

Designator Length Width Surface Rops
9/27 2700 45 CON Yes/Yes

Airport map

Aerial View

SKYbrary Partners:

Safety knowledge contributed by: